sensor_id;sensor_type;location;lat;lon;timestamp;temperature;humidity
19536;HTU21D;9913;51.168;4.124;2023-09-12T00:00:06;19.33;102.82
19536;HTU21D;9913;51.168;4.124;2023-09-12T00:02:40;19.28;102.58
19536;HTU21D;9913;51.168;4.124;2023-09-12T00:05:09;19.28;102.73
19536;HTU21D;9913;51.168;4.124;2023-09-12T00:07:39;19.40;102.90
19536;HTU21D;9913;51.168;4.124;2023-09-12T00:10:08;19.48;102.83
19536;HTU21D;9913;51.168;4.124;2023-09-12T00:12:37;19.51;102.99
19536;HTU21D;9913;51.168;4.124;2023-09-12T00:15:06;19.58;103.15
19536;HTU21D;9913;51.168;4.124;2023-09-12T00:17:35;19.75;102.89
19536;HTU21D;9913;51.168;4.124;2023-09-12T00:20:04;19.68;103.31
19536;HTU21D;9913;51.168;4.124;2023-09-12T00:22:34;19.65;103.27
19536;HTU21D;9913;51.168;4.124;2023-09-12T00:25:05;19.71;103.32
19536;HTU21D;9913;51.168;4.124;2023-09-12T00:27:33;19.73;103.45
19536;HTU21D;9913;51.168;4.124;2023-09-12T00:30:02;19.74;103.43
19536;HTU21D;9913;51.168;4.124;2023-09-12T00:32:32;19.74;103.47
19536;HTU21D;9913;51.168;4.124;2023-09-12T00:35:00;19.84;103.39
19536;HTU21D;9913;51.168;4.124;2023-09-12T00:37:28;19.82;103.51
19536;HTU21D;9913;51.168;4.124;2023-09-12T00:39:56;19.86;103.33
19536;HTU21D;9913;51.168;4.124;2023-09-12T00:42:26;19.87;103.40
19536;HTU21D;9913;51.168;4.124;2023-09-12T00:44:55;19.84;103.38
19536;HTU21D;9913;51.168;4.124;2023-09-12T00:47:23;19.86;103.60
19536;HTU21D;9913;51.168;4.124;2023-09-12T00:49:55;19.91;103.35
19536;HTU21D;9913;51.168;4.124;2023-09-12T00:52:26;19.89;103.45
19536;HTU21D;9913;51.168;4.124;2023-09-12T00:54:56;19.95;103.66
19536;HTU21D;9913;51.168;4.124;2023-09-12T00:57:26;19.89;103.71
19536;HTU21D;9913;51.168;4.124;2023-09-12T00:59:57;19.91;103.47
19536;HTU21D;9913;51.168;4.124;2023-09-12T01:02:26;19.90;103.63
19536;HTU21D;9913;51.168;4.124;2023-09-12T01:04:54;19.91;103.58
19536;HTU21D;9913;51.168;4.124;2023-09-12T01:07:23;19.90;103.54
19536;HTU21D;9913;51.168;4.124;2023-09-12T01:09:54;19.84;103.88
19536;HTU21D;9913;51.168;4.124;2023-09-12T01:12:22;19.85;103.61
19536;HTU21D;9913;51.168;4.124;2023-09-12T01:14:53;19.83;103.77
19536;HTU21D;9913;51.168;4.124;2023-09-12T01:17:24;19.75;103.68
19536;HTU21D;9913;51.168;4.124;2023-09-12T01:19:52;19.76;103.69
19536;HTU21D;9913;51.168;4.124;2023-09-12T01:22:40;19.75;103.82
19536;HTU21D;9913;51.168;4.124;2023-09-12T01:28:17;19.72;103.61
19536;HTU21D;9913;51.168;4.124;2023-09-12T01:30:50;19.71;103.57
19536;HTU21D;9913;51.168;4.124;2023-09-12T01:33:20;19.69;103.63
19536;HTU21D;9913;51.168;4.124;2023-09-12T01:35:51;19.67;103.71
19536;HTU21D;9913;51.168;4.124;2023-09-12T01:38:22;19.66;103.77
19536;HTU21D;9913;51.168;4.124;2023-09-12T01:40:55;19.65;103.89
19536;HTU21D;9913;51.168;4.124;2023-09-12T01:43:27;19.62;104.03
19536;HTU21D;9913;51.168;4.124;2023-09-12T01:45:59;19.59;103.94
19536;HTU21D;9913;51.168;4.124;2023-09-12T01:48:33;19.53;103.99
19536;HTU21D;9913;51.168;4.124;2023-09-12T01:51:04;19.54;104.16
19536;HTU21D;9913;51.168;4.124;2023-09-12T01:53:36;19.58;103.95
19536;HTU21D;9913;51.168;4.124;2023-09-12T01:56:04;19.60;104.14
19536;HTU21D;9913;51.168;4.124;2023-09-12T01:58:35;19.56;104.29
19536;HTU21D;9913;51.168;4.124;2023-09-12T02:01:04;19.54;104.18
19536;HTU21D;9913;51.168;4.124;2023-09-12T02:03:32;19.58;104.07
19536;HTU21D;9913;51.168;4.124;2023-09-12T02:06:02;19.57;104.11
19536;HTU21D;9913;51.168;4.124;2023-09-12T02:08:30;19.57;104.24
19536;HTU21D;9913;51.168;4.124;2023-09-12T02:10:59;19.55;104.25
19536;HTU21D;9913;51.168;4.124;2023-09-12T02:13:27;19.53;104.05
19536;HTU21D;9913;51.168;4.124;2023-09-12T02:16:02;19.47;104.31
19536;HTU21D;9913;51.168;4.124;2023-09-12T02:18:31;19.45;104.22
19536;HTU21D;9913;51.168;4.124;2023-09-12T02:21:00;19.41;104.20
19536;HTU21D;9913;51.168;4.124;2023-09-12T02:23:29;19.38;104.35
19536;HTU21D;9913;51.168;4.124;2023-09-12T02:25:57;19.37;104.39
19536;HTU21D;9913;51.168;4.124;2023-09-12T02:28:26;19.36;104.49
19536;HTU21D;9913;51.168;4.124;2023-09-12T02:30:54;19.42;104.39
19536;HTU21D;9913;51.168;4.124;2023-09-12T02:33:24;19.42;104.35
19536;HTU21D;9913;51.168;4.124;2023-09-12T02:35:52;19.39;104.52
19536;HTU21D;9913;51.168;4.124;2023-09-12T02:38:21;19.41;104.61
19536;HTU21D;9913;51.168;4.124;2023-09-12T02:40:49;19.36;104.55
19536;HTU21D;9913;51.168;4.124;2023-09-12T02:43:17;19.36;104.65
19536;HTU21D;9913;51.168;4.124;2023-09-12T02:45:45;19.35;104.67
19536;HTU21D;9913;51.168;4.124;2023-09-12T02:48:14;19.33;104.72
19536;HTU21D;9913;51.168;4.124;2023-09-12T02:50:44;19.30;104.75
19536;HTU21D;9913;51.168;4.124;2023-09-12T02:53:13;19.37;104.66
19536;HTU21D;9913;51.168;4.124;2023-09-12T02:55:42;19.39;104.48
19536;HTU21D;9913;51.168;4.124;2023-09-12T02:58:10;19.29;104.57
19536;HTU21D;9913;51.168;4.124;2023-09-12T03:00:39;19.33;104.65
19536;HTU21D;9913;51.168;4.124;2023-09-12T03:03:08;19.28;104.86
19536;HTU21D;9913;51.168;4.124;2023-09-12T03:05:40;19.25;104.82
19536;HTU21D;9913;51.168;4.124;2023-09-12T03:08:10;19.27;104.76
19536;HTU21D;9913;51.168;4.124;2023-09-12T03:10:38;19.24;104.97
19536;HTU21D;9913;51.168;4.124;2023-09-12T03:13:11;19.24;104.73
19536;HTU21D;9913;51.168;4.124;2023-09-12T03:15:40;19.31;104.73
19536;HTU21D;9913;51.168;4.124;2023-09-12T03:18:10;19.22;104.78
19536;HTU21D;9913;51.168;4.124;2023-09-12T03:20:39;19.23;104.93
19536;HTU21D;9913;51.168;4.124;2023-09-12T03:23:12;19.25;104.87
19536;HTU21D;9913;51.168;4.124;2023-09-12T03:25:40;19.14;105.05
19536;HTU21D;9913;51.168;4.124;2023-09-12T03:28:09;19.18;104.94
19536;HTU21D;9913;51.168;4.124;2023-09-12T03:30:41;19.16;104.99
19536;HTU21D;9913;51.168;4.124;2023-09-12T03:33:10;19.18;105.08
19536;HTU21D;9913;51.168;4.124;2023-09-12T03:35:38;19.13;105.08
19536;HTU21D;9913;51.168;4.124;2023-09-12T03:38:13;19.17;105.09
19536;HTU21D;9913;51.168;4.124;2023-09-12T03:40:42;19.10;105.12
19536;HTU21D;9913;51.168;4.124;2023-09-12T03:43:10;19.08;105.21
19536;HTU21D;9913;51.168;4.124;2023-09-12T03:45:39;19.12;105.27
19536;HTU21D;9913;51.168;4.124;2023-09-12T03:48:07;19.10;105.19
19536;HTU21D;9913;51.168;4.124;2023-09-12T03:50:36;19.10;105.22
19536;HTU21D;9913;51.168;4.124;2023-09-12T03:53:04;19.12;105.24
19536;HTU21D;9913;51.168;4.124;2023-09-12T03:55:34;19.18;105.02
19536;HTU21D;9913;51.168;4.124;2023-09-12T03:58:03;19.07;105.18
19536;HTU21D;9913;51.168;4.124;2023-09-12T04:00:32;19.15;105.00
19536;HTU21D;9913;51.168;4.124;2023-09-12T04:03:01;19.10;105.28
19536;HTU21D;9913;51.168;4.124;2023-09-12T04:05:29;19.05;105.41
19536;HTU21D;9913;51.168;4.124;2023-09-12T04:07:58;18.99;105.35
19536;HTU21D;9913;51.168;4.124;2023-09-12T04:10:26;18.96;105.28
19536;HTU21D;9913;51.168;4.124;2023-09-12T04:12:56;18.95;105.39
19536;HTU21D;9913;51.168;4.124;2023-09-12T04:15:24;18.96;105.35
19536;HTU21D;9913;51.168;4.124;2023-09-12T04:17:53;19.03;105.35
19536;HTU21D;9913;51.168;4.124;2023-09-12T04:20:21;18.98;105.34
19536;HTU21D;9913;51.168;4.124;2023-09-12T04:22:50;19.03;105.31
19536;HTU21D;9913;51.168;4.124;2023-09-12T04:25:18;18.99;105.31
19536;HTU21D;9913;51.168;4.124;2023-09-12T04:27:48;19.00;105.57
19536;HTU21D;9913;51.168;4.124;2023-09-12T04:30:18;19.03;105.47
19536;HTU21D;9913;51.168;4.124;2023-09-12T04:32:47;19.03;105.36
19536;HTU21D;9913;51.168;4.124;2023-09-12T04:35:17;18.97;105.47
19536;HTU21D;9913;51.168;4.124;2023-09-12T04:37:47;19.05;105.46
19536;HTU21D;9913;51.168;4.124;2023-09-12T04:40:15;19.08;105.37
19536;HTU21D;9913;51.168;4.124;2023-09-12T04:42:43;19.06;105.44
19536;HTU21D;9913;51.168;4.124;2023-09-12T04:45:13;19.08;105.41
19536;HTU21D;9913;51.168;4.124;2023-09-12T04:47:43;19.02;105.47
19536;HTU21D;9913;51.168;4.124;2023-09-12T04:50:12;19.05;105.63
19536;HTU21D;9913;51.168;4.124;2023-09-12T04:52:40;19.09;105.64
19536;HTU21D;9913;51.168;4.124;2023-09-12T04:55:09;18.96;105.57
19536;HTU21D;9913;51.168;4.124;2023-09-12T04:57:40;18.89;105.92
19536;HTU21D;9913;51.168;4.124;2023-09-12T05:00:10;18.69;106.10
19536;HTU21D;9913;51.168;4.124;2023-09-12T05:02:39;18.73;106.05
19536;HTU21D;9913;51.168;4.124;2023-09-12T05:05:08;18.78;106.01
19536;HTU21D;9913;51.168;4.124;2023-09-12T05:07:40;18.80;106.10
19536;HTU21D;9913;51.168;4.124;2023-09-12T05:10:08;18.77;106.01
19536;HTU21D;9913;51.168;4.124;2023-09-12T05:12:37;18.79;105.91
19536;HTU21D;9913;51.168;4.124;2023-09-12T05:15:06;18.72;105.86
19536;HTU21D;9913;51.168;4.124;2023-09-12T05:17:34;18.65;106.04
19536;HTU21D;9913;51.168;4.124;2023-09-12T05:20:03;18.56;105.99
19536;HTU21D;9913;51.168;4.124;2023-09-12T05:22:35;18.40;106.10
19536;HTU21D;9913;51.168;4.124;2023-09-12T05:25:04;18.38;106.28
19536;HTU21D;9913;51.168;4.124;2023-09-12T05:27:33;18.49;105.95
19536;HTU21D;9913;51.168;4.124;2023-09-12T05:30:02;18.46;106.29
19536;HTU21D;9913;51.168;4.124;2023-09-12T05:32:32;18.44;106.05
19536;HTU21D;9913;51.168;4.124;2023-09-12T05:35:03;18.49;106.22
19536;HTU21D;9913;51.168;4.124;2023-09-12T05:37:49;18.49;106.38
19536;HTU21D;9913;51.168;4.124;2023-09-12T05:40:18;18.49;106.31
19536;HTU21D;9913;51.168;4.124;2023-09-12T05:42:47;18.49;106.30
19536;HTU21D;9913;51.168;4.124;2023-09-12T05:45:15;18.54;106.47
19536;HTU21D;9913;51.168;4.124;2023-09-12T05:47:46;18.58;106.43
19536;HTU21D;9913;51.168;4.124;2023-09-12T05:50:15;18.62;106.46
19536;HTU21D;9913;51.168;4.124;2023-09-12T05:52:44;18.58;106.57
19536;HTU21D;9913;51.168;4.124;2023-09-12T05:55:14;18.65;106.70
19536;HTU21D;9913;51.168;4.124;2023-09-12T05:57:43;18.65;106.75
19536;HTU21D;9913;51.168;4.124;2023-09-12T06:00:12;18.68;106.82
19536;HTU21D;9913;51.168;4.124;2023-09-12T06:02:42;18.64;106.80
19536;HTU21D;9913;51.168;4.124;2023-09-12T06:05:13;18.68;107.01
19536;HTU21D;9913;51.168;4.124;2023-09-12T06:07:42;18.73;106.89
19536;HTU21D;9913;51.168;4.124;2023-09-12T06:10:10;18.78;106.85
19536;HTU21D;9913;51.168;4.124;2023-09-12T06:12:40;18.87;106.91
19536;HTU21D;9913;51.168;4.124;2023-09-12T06:15:09;18.74;106.89
19536;HTU21D;9913;51.168;4.124;2023-09-12T06:17:37;18.82;106.95
19536;HTU21D;9913;51.168;4.124;2023-09-12T06:20:07;18.79;106.77
19536;HTU21D;9913;51.168;4.124;2023-09-12T06:22:35;18.88;106.98
19536;HTU21D;9913;51.168;4.124;2023-09-12T06:25:04;18.91;106.88
19536;HTU21D;9913;51.168;4.124;2023-09-12T06:27:37;18.97;106.69
19536;HTU21D;9913;51.168;4.124;2023-09-12T06:30:08;18.96;107.06
19536;HTU21D;9913;51.168;4.124;2023-09-12T06:32:37;18.93;106.92
19536;HTU21D;9913;51.168;4.124;2023-09-12T06:35:06;18.93;107.28
19536;HTU21D;9913;51.168;4.124;2023-09-12T06:37:39;18.82;107.38
19536;HTU21D;9913;51.168;4.124;2023-09-12T06:40:08;18.79;107.53
19536;HTU21D;9913;51.168;4.124;2023-09-12T06:42:36;18.79;107.31
19536;HTU21D;9913;51.168;4.124;2023-09-12T06:45:08;18.93;107.66
19536;HTU21D;9913;51.168;4.124;2023-09-12T06:47:37;18.93;107.63
19536;HTU21D;9913;51.168;4.124;2023-09-12T06:50:06;18.95;107.55
19536;HTU21D;9913;51.168;4.124;2023-09-12T06:52:40;19.11;107.34
19536;HTU21D;9913;51.168;4.124;2023-09-12T06:55:10;19.23;107.69
19536;HTU21D;9913;51.168;4.124;2023-09-12T06:57:41;19.14;107.30
19536;HTU21D;9913;51.168;4.124;2023-09-12T07:00:16;19.15;107.33
19536;HTU21D;9913;51.168;4.124;2023-09-12T07:02:46;19.10;107.35
19536;HTU21D;9913;51.168;4.124;2023-09-12T07:05:16;19.14;107.33
19536;HTU21D;9913;51.168;4.124;2023-09-12T07:07:44;19.00;107.20
19536;HTU21D;9913;51.168;4.124;2023-09-12T07:10:14;19.00;107.43
19536;HTU21D;9913;51.168;4.124;2023-09-12T07:12:52;19.21;107.49
19536;HTU21D;9913;51.168;4.124;2023-09-12T07:15:23;19.20;107.40
19536;HTU21D;9913;51.168;4.124;2023-09-12T07:17:52;19.31;107.43
19536;HTU21D;9913;51.168;4.124;2023-09-12T07:20:20;19.39;107.67
19536;HTU21D;9913;51.168;4.124;2023-09-12T07:22:48;19.45;107.62
19536;HTU21D;9913;51.168;4.124;2023-09-12T07:25:17;19.35;107.53
19536;HTU21D;9913;51.168;4.124;2023-09-12T07:27:50;19.40;107.78
19536;HTU21D;9913;51.168;4.124;2023-09-12T07:30:19;19.39;107.72
19536;HTU21D;9913;51.168;4.124;2023-09-12T07:32:48;19.43;108.07
19536;HTU21D;9913;51.168;4.124;2023-09-12T07:35:19;19.43;107.52
19536;HTU21D;9913;51.168;4.124;2023-09-12T07:37:49;19.38;107.41
19536;HTU21D;9913;51.168;4.124;2023-09-12T07:40:17;19.51;107.76
19536;HTU21D;9913;51.168;4.124;2023-09-12T07:42:45;19.60;107.36
19536;HTU21D;9913;51.168;4.124;2023-09-12T07:45:15;19.70;107.33
19536;HTU21D;9913;51.168;4.124;2023-09-12T07:47:44;19.69;107.93
19536;HTU21D;9913;51.168;4.124;2023-09-12T07:50:14;19.61;107.95
19536;HTU21D;9913;51.168;4.124;2023-09-12T07:52:42;19.60;107.92
19536;HTU21D;9913;51.168;4.124;2023-09-12T07:55:14;19.61;107.88
19536;HTU21D;9913;51.168;4.124;2023-09-12T07:57:42;19.68;107.60
19536;HTU21D;9913;51.168;4.124;2023-09-12T08:00:12;19.60;107.49
19536;HTU21D;9913;51.168;4.124;2023-09-12T08:02:40;19.42;107.62
19536;HTU21D;9913;51.168;4.124;2023-09-12T08:05:09;19.54;107.69
19536;HTU21D;9913;51.168;4.124;2023-09-12T08:07:38;19.53;107.62
19536;HTU21D;9913;51.168;4.124;2023-09-12T08:10:07;19.68;107.61
19536;HTU21D;9913;51.168;4.124;2023-09-12T08:12:38;19.87;107.64
19536;HTU21D;9913;51.168;4.124;2023-09-12T08:15:08;19.91;107.49
19536;HTU21D;9913;51.168;4.124;2023-09-12T08:17:37;20.09;106.88
19536;HTU21D;9913;51.168;4.124;2023-09-12T08:20:08;20.32;107.17
19536;HTU21D;9913;51.168;4.124;2023-09-12T08:22:39;20.50;107.37
19536;HTU21D;9913;51.168;4.124;2023-09-12T08:25:08;20.55;106.75
19536;HTU21D;9913;51.168;4.124;2023-09-12T08:27:39;20.69;106.41
19536;HTU21D;9913;51.168;4.124;2023-09-12T08:30:08;20.74;107.19
19536;HTU21D;9913;51.168;4.124;2023-09-12T08:32:37;20.34;106.94
19536;HTU21D;9913;51.168;4.124;2023-09-12T08:35:07;20.31;107.21
19536;HTU21D;9913;51.168;4.124;2023-09-12T08:37:35;20.20;106.82
19536;HTU21D;9913;51.168;4.124;2023-09-12T08:40:06;20.30;106.18
19536;HTU21D;9913;51.168;4.124;2023-09-12T08:42:41;20.58;106.35
19536;HTU21D;9913;51.168;4.124;2023-09-12T08:45:12;20.50;105.85
19536;HTU21D;9913;51.168;4.124;2023-09-12T08:47:42;20.84;106.88
19536;HTU21D;9913;51.168;4.124;2023-09-12T08:50:14;21.14;107.12
19536;HTU21D;9913;51.168;4.124;2023-09-12T08:52:46;20.99;106.37
19536;HTU21D;9913;51.168;4.124;2023-09-12T08:55:37;21.16;106.50
19536;HTU21D;9913;51.168;4.124;2023-09-12T08:58:05;21.23;106.65
19536;HTU21D;9913;51.168;4.124;2023-09-12T09:00:34;21.06;107.19
19536;HTU21D;9913;51.168;4.124;2023-09-12T09:03:03;21.29;107.00
19536;HTU21D;9913;51.168;4.124;2023-09-12T09:05:33;21.44;105.59
19536;HTU21D;9913;51.168;4.124;2023-09-12T09:08:03;21.31;106.07
19536;HTU21D;9913;51.168;4.124;2023-09-12T09:10:32;21.35;106.33
19536;HTU21D;9913;51.168;4.124;2023-09-12T09:13:08;21.73;106.29
19536;HTU21D;9913;51.168;4.124;2023-09-12T09:15:38;21.78;105.61
19536;HTU21D;9913;51.168;4.124;2023-09-12T09:18:09;21.61;105.47
19536;HTU21D;9913;51.168;4.124;2023-09-12T09:20:40;21.54;105.65
19536;HTU21D;9913;51.168;4.124;2023-09-12T09:23:10;21.35;105.28
19536;HTU21D;9913;51.168;4.124;2023-09-12T09:25:40;21.40;105.53
19536;HTU21D;9913;51.168;4.124;2023-09-12T09:28:18;21.52;105.38
19536;HTU21D;9913;51.168;4.124;2023-09-12T09:30:48;21.25;105.07
19536;HTU21D;9913;51.168;4.124;2023-09-12T09:33:21;21.44;105.56
19536;HTU21D;9913;51.168;4.124;2023-09-12T09:35:49;21.91;105.51
19536;HTU21D;9913;51.168;4.124;2023-09-12T09:38:19;22.11;104.37
19536;HTU21D;9913;51.168;4.124;2023-09-12T09:40:50;21.94;105.11
19536;HTU21D;9913;51.168;4.124;2023-09-12T09:43:21;22.24;104.72
19536;HTU21D;9913;51.168;4.124;2023-09-12T09:45:49;22.32;103.47
19536;HTU21D;9913;51.168;4.124;2023-09-12T09:48:19;22.04;104.17
19536;HTU21D;9913;51.168;4.124;2023-09-12T09:50:50;22.05;104.02
19536;HTU21D;9913;51.168;4.124;2023-09-12T09:53:21;22.16;103.73
19536;HTU21D;9913;51.168;4.124;2023-09-12T09:56:07;22.55;104.35
19536;HTU21D;9913;51.168;4.124;2023-09-12T09:58:44;22.63;104.28
19536;HTU21D;9913;51.168;4.124;2023-09-12T10:01:17;22.51;102.39
19536;HTU21D;9913;51.168;4.124;2023-09-12T10:03:48;22.12;103.39
19536;HTU21D;9913;51.168;4.124;2023-09-12T10:06:19;22.53;104.49
19536;HTU21D;9913;51.168;4.124;2023-09-12T10:08:52;22.66;101.73
19536;HTU21D;9913;51.168;4.124;2023-09-12T10:11:23;22.70;102.33
19536;HTU21D;9913;51.168;4.124;2023-09-12T10:13:55;22.83;102.10
19536;HTU21D;9913;51.168;4.124;2023-09-12T10:16:25;22.77;101.15
19536;HTU21D;9913;51.168;4.124;2023-09-12T10:18:59;23.06;100.64
19536;HTU21D;9913;51.168;4.124;2023-09-12T10:21:32;23.40;100.67
19536;HTU21D;9913;51.168;4.124;2023-09-12T10:24:05;23.66;101.40
19536;HTU21D;9913;51.168;4.124;2023-09-12T10:26:35;24.00;99.73
19536;HTU21D;9913;51.168;4.124;2023-09-12T10:29:05;23.95;99.65
19536;HTU21D;9913;51.168;4.124;2023-09-12T10:31:34;23.88;100.66
19536;HTU21D;9913;51.168;4.124;2023-09-12T10:34:05;24.33;101.77
19536;HTU21D;9913;51.168;4.124;2023-09-12T10:36:38;24.41;97.97
19536;HTU21D;9913;51.168;4.124;2023-09-12T10:39:08;24.16;98.57
19536;HTU21D;9913;51.168;4.124;2023-09-12T10:41:38;23.99;95.84
19536;HTU21D;9913;51.168;4.124;2023-09-12T10:44:11;24.49;97.29
19536;HTU21D;9913;51.168;4.124;2023-09-12T10:46:44;24.58;98.20
19536;HTU21D;9913;51.168;4.124;2023-09-12T10:49:15;24.01;97.20
19536;HTU21D;9913;51.168;4.124;2023-09-12T10:51:45;23.98;97.39
19536;HTU21D;9913;51.168;4.124;2023-09-12T10:54:23;24.42;98.83
19536;HTU21D;9913;51.168;4.124;2023-09-12T10:57:03;24.43;100.59
19536;HTU21D;9913;51.168;4.124;2023-09-12T10:59:33;24.74;97.58
19536;HTU21D;9913;51.168;4.124;2023-09-12T11:02:31;24.77;98.29
19536;HTU21D;9913;51.168;4.124;2023-09-12T11:05:01;25.02;98.69
19536;HTU21D;9913;51.168;4.124;2023-09-12T11:07:44;24.38;97.60
19536;HTU21D;9913;51.168;4.124;2023-09-12T11:10:20;24.33;97.54
19536;HTU21D;9913;51.168;4.124;2023-09-12T11:12:52;24.51;97.89
19536;HTU21D;9913;51.168;4.124;2023-09-12T11:15:25;24.65;98.32
19536;HTU21D;9913;51.168;4.124;2023-09-12T11:18:02;24.71;97.81
19536;HTU21D;9913;51.168;4.124;2023-09-12T11:20:51;24.62;98.13
19536;HTU21D;9913;51.168;4.124;2023-09-12T11:23:21;24.39;95.85
19536;HTU21D;9913;51.168;4.124;2023-09-12T11:26:03;24.18;95.86
19536;HTU21D;9913;51.168;4.124;2023-09-12T11:28:33;24.44;96.78
19536;HTU21D;9913;51.168;4.124;2023-09-12T11:31:04;24.95;98.03
19536;HTU21D;9913;51.168;4.124;2023-09-12T11:33:32;25.13;94.73
19536;HTU21D;9913;51.168;4.124;2023-09-12T11:36:04;25.20;95.23
19536;HTU21D;9913;51.168;4.124;2023-09-12T11:38:35;25.10;93.89
19536;HTU21D;9913;51.168;4.124;2023-09-12T11:41:04;25.46;92.44
19536;HTU21D;9913;51.168;4.124;2023-09-12T11:43:32;25.30;93.56
19536;HTU21D;9913;51.168;4.124;2023-09-12T11:46:06;25.15;92.43
19536;HTU21D;9913;51.168;4.124;2023-09-12T11:48:35;25.17;89.56
19536;HTU21D;9913;51.168;4.124;2023-09-12T11:51:07;25.48;90.53
19536;HTU21D;9913;51.168;4.124;2023-09-12T11:53:36;25.81;92.47
19536;HTU21D;9913;51.168;4.124;2023-09-12T11:56:04;26.13;91.18
19536;HTU21D;9913;51.168;4.124;2023-09-12T11:58:33;26.32;92.05
19536;HTU21D;9913;51.168;4.124;2023-09-12T12:01:06;26.21;91.11
19536;HTU21D;9913;51.168;4.124;2023-09-12T12:03:34;25.77;93.11
19536;HTU21D;9913;51.168;4.124;2023-09-12T12:06:04;26.16;91.69
19536;HTU21D;9913;51.168;4.124;2023-09-12T12:08:33;26.08;92.95
19536;HTU21D;9913;51.168;4.124;2023-09-12T12:11:01;26.26;90.33
19536;HTU21D;9913;51.168;4.124;2023-09-12T12:13:29;26.28;93.73
19536;HTU21D;9913;51.168;4.124;2023-09-12T12:15:58;26.35;93.08
19536;HTU21D;9913;51.168;4.124;2023-09-12T12:18:28;26.34;90.96
19536;HTU21D;9913;51.168;4.124;2023-09-12T12:20:57;26.24;89.62
19536;HTU21D;9913;51.168;4.124;2023-09-12T12:23:25;26.57;89.44
19536;HTU21D;9913;51.168;4.124;2023-09-12T12:25:54;25.64;93.09
19536;HTU21D;9913;51.168;4.124;2023-09-12T12:28:22;25.09;92.59
19536;HTU21D;9913;51.168;4.124;2023-09-12T12:30:52;24.74;92.51
19536;HTU21D;9913;51.168;4.124;2023-09-12T12:33:21;24.62;93.98
19536;HTU21D;9913;51.168;4.124;2023-09-12T12:35:59;24.09;94.95
19536;HTU21D;9913;51.168;4.124;2023-09-12T12:38:31;24.25;96.78
19536;HTU21D;9913;51.168;4.124;2023-09-12T12:41:00;24.32;97.35
19536;HTU21D;9913;51.168;4.124;2023-09-12T12:43:30;24.50;97.47
19536;HTU21D;9913;51.168;4.124;2023-09-12T12:45:58;24.92;97.42
19536;HTU21D;9913;51.168;4.124;2023-09-12T12:48:29;25.00;95.98
19536;HTU21D;9913;51.168;4.124;2023-09-12T12:51:12;25.40;96.87
19536;HTU21D;9913;51.168;4.124;2023-09-12T12:53:45;24.78;93.55
19536;HTU21D;9913;51.168;4.124;2023-09-12T12:56:21;24.32;94.44
19536;HTU21D;9913;51.168;4.124;2023-09-12T12:58:51;24.19;96.69
19536;HTU21D;9913;51.168;4.124;2023-09-12T13:01:21;24.23;96.86
19536;HTU21D;9913;51.168;4.124;2023-09-12T13:03:51;24.58;97.22
19536;HTU21D;9913;51.168;4.124;2023-09-12T13:06:23;24.75;98.10
19536;HTU21D;9913;51.168;4.124;2023-09-12T13:08:53;24.44;98.98
19536;HTU21D;9913;51.168;4.124;2023-09-12T13:11:24;24.26;97.35
19536;HTU21D;9913;51.168;4.124;2023-09-12T13:13:53;24.73;95.96
19536;HTU21D;9913;51.168;4.124;2023-09-12T13:16:22;25.22;96.91
19536;HTU21D;9913;51.168;4.124;2023-09-12T13:18:52;25.51;96.48
19536;HTU21D;9913;51.168;4.124;2023-09-12T13:21:20;26.09;94.30
19536;HTU21D;9913;51.168;4.124;2023-09-12T13:23:51;26.32;93.91
19536;HTU21D;9913;51.168;4.124;2023-09-12T13:26:19;26.34;94.21
19536;HTU21D;9913;51.168;4.124;2023-09-12T13:28:47;26.21;94.98
19536;HTU21D;9913;51.168;4.124;2023-09-12T13:31:15;25.81;94.55
19536;HTU21D;9913;51.168;4.124;2023-09-12T13:33:44;25.42;94.81
19536;HTU21D;9913;51.168;4.124;2023-09-12T13:36:13;25.65;93.55
19536;HTU21D;9913;51.168;4.124;2023-09-12T13:38:41;24.97;95.04
19536;HTU21D;9913;51.168;4.124;2023-09-12T13:41:11;24.51;95.33
19536;HTU21D;9913;51.168;4.124;2023-09-12T13:43:41;24.55;97.08
19536;HTU21D;9913;51.168;4.124;2023-09-12T13:46:19;24.41;98.06
19536;HTU21D;9913;51.168;4.124;2023-09-12T13:48:51;24.50;98.15
19536;HTU21D;9913;51.168;4.124;2023-09-12T13:51:19;24.92;97.05
19536;HTU21D;9913;51.168;4.124;2023-09-12T13:53:49;25.38;96.23
19536;HTU21D;9913;51.168;4.124;2023-09-12T13:56:19;25.22;97.05
19536;HTU21D;9913;51.168;4.124;2023-09-12T13:58:48;24.86;96.83
19536;HTU21D;9913;51.168;4.124;2023-09-12T14:01:17;24.65;97.65
19536;HTU21D;9913;51.168;4.124;2023-09-12T14:03:59;24.77;95.79
19536;HTU21D;9913;51.168;4.124;2023-09-12T14:06:36;24.71;97.37
19536;HTU21D;9913;51.168;4.124;2023-09-12T14:09:05;24.84;96.20
19536;HTU21D;9913;51.168;4.124;2023-09-12T14:11:35;25.09;95.01
19536;HTU21D;9913;51.168;4.124;2023-09-12T14:14:04;25.06;95.46
19536;HTU21D;9913;51.168;4.124;2023-09-12T14:16:43;24.94;95.46
19536;HTU21D;9913;51.168;4.124;2023-09-12T14:19:14;24.83;95.90
19536;HTU21D;9913;51.168;4.124;2023-09-12T14:21:43;24.83;94.97
19536;HTU21D;9913;51.168;4.124;2023-09-12T14:24:14;24.51;96.91
19536;HTU21D;9913;51.168;4.124;2023-09-12T14:26:46;24.56;96.82
19536;HTU21D;9913;51.168;4.124;2023-09-12T14:29:16;24.65;95.33
19536;HTU21D;9913;51.168;4.124;2023-09-12T14:31:44;24.68;96.60
19536;HTU21D;9913;51.168;4.124;2023-09-12T14:34:18;24.54;95.57
19536;HTU21D;9913;51.168;4.124;2023-09-12T14:36:46;24.26;96.46
19536;HTU21D;9913;51.168;4.124;2023-09-12T14:39:21;23.99;96.81
19536;HTU21D;9913;51.168;4.124;2023-09-12T14:41:51;23.75;98.60
19536;HTU21D;9913;51.168;4.124;2023-09-12T14:44:21;23.79;100.29
19536;HTU21D;9913;51.168;4.124;2023-09-12T14:46:50;23.70;98.88
19536;HTU21D;9913;51.168;4.124;2023-09-12T14:49:18;23.64;97.74
19536;HTU21D;9913;51.168;4.124;2023-09-12T14:51:47;23.71;98.01
19536;HTU21D;9913;51.168;4.124;2023-09-12T14:54:15;23.64;99.26
19536;HTU21D;9913;51.168;4.124;2023-09-12T14:56:44;23.67;99.06
19536;HTU21D;9913;51.168;4.124;2023-09-12T14:59:14;23.58;100.28
19536;HTU21D;9913;51.168;4.124;2023-09-12T15:01:43;23.49;99.16
19536;HTU21D;9913;51.168;4.124;2023-09-12T15:04:12;23.45;99.19
19536;HTU21D;9913;51.168;4.124;2023-09-12T15:06:40;23.47;98.87
19536;HTU21D;9913;51.168;4.124;2023-09-12T15:09:08;23.39;99.68
19536;HTU21D;9913;51.168;4.124;2023-09-12T15:11:37;23.32;100.16
19536;HTU21D;9913;51.168;4.124;2023-09-12T15:14:08;23.32;99.66
19536;HTU21D;9913;51.168;4.124;2023-09-12T15:16:37;23.27;100.12
19536;HTU21D;9913;51.168;4.124;2023-09-12T15:19:06;23.25;99.40
19536;HTU21D;9913;51.168;4.124;2023-09-12T15:21:36;23.28;99.70
19536;HTU21D;9913;51.168;4.124;2023-09-12T15:24:05;23.32;99.73
19536;HTU21D;9913;51.168;4.124;2023-09-12T15:26:33;23.28;99.44
19536;HTU21D;9913;51.168;4.124;2023-09-12T15:29:01;23.28;99.30
19536;HTU21D;9913;51.168;4.124;2023-09-12T15:31:31;23.34;98.93
19536;HTU21D;9913;51.168;4.124;2023-09-12T15:34:01;23.36;99.58
19536;HTU21D;9913;51.168;4.124;2023-09-12T15:36:39;23.23;98.86
19536;HTU21D;9913;51.168;4.124;2023-09-12T15:39:09;23.11;100.12
19536;HTU21D;9913;51.168;4.124;2023-09-12T15:41:38;23.10;100.41